createdAt,value
2019-02-23T00:00:34.170Z,21.62
2019-02-23T00:01:37.784Z,19.48
2019-02-23T00:02:41.389Z,18.65
2019-02-23T00:03:44.998Z,20.97
2019-02-23T00:04:48.790Z,18.75
2019-02-23T00:05:52.413Z,19.07
2019-02-23T00:06:56.036Z,20.35
2019-02-23T00:07:59.634Z,20.85
2019-02-23T00:09:04.956Z,24.52
2019-02-23T00:10:08.703Z,31.68
2019-02-23T00:11:12.301Z,25.40
2019-02-23T00:12:15.931Z,22.52
2019-02-23T00:13:19.536Z,18.60
2019-02-23T00:14:23.116Z,22.02
2019-02-23T00:15:26.728Z,20.30
2019-02-23T00:16:30.371Z,19.02
2019-02-23T00:17:33.965Z,23.18
2019-02-23T00:18:37.558Z,19.62
2019-02-23T00:19:41.170Z,19.55
2019-02-23T00:20:44.747Z,21.85
2019-02-23T00:21:48.438Z,23.83
2019-02-23T00:22:52.020Z,22.95
2019-02-23T00:23:55.636Z,25.45
2019-02-23T00:24:59.261Z,22.77
2019-02-23T00:26:02.896Z,22.52
2019-02-23T00:27:06.485Z,21.45
2019-02-23T00:28:10.094Z,22.32
2019-02-23T00:29:13.688Z,22.25
2019-02-23T00:30:17.356Z,24.35
2019-02-23T00:31:21.059Z,23.47
2019-02-23T00:32:24.741Z,21.97
2019-02-23T00:33:28.329Z,22.42
2019-02-23T00:34:31.962Z,25.35
2019-02-23T00:35:35.626Z,22.82
2019-02-23T00:36:39.246Z,22.17
2019-02-23T00:37:42.911Z,26.62
2019-02-23T00:38:46.544Z,23.92
2019-02-23T00:39:50.298Z,23.32
2019-02-23T00:40:53.807Z,25.37
2019-02-23T00:41:57.455Z,21.85
2019-02-23T00:43:01.039Z,21.82
2019-02-23T00:44:04.692Z,22.82
2019-02-23T00:45:08.485Z,22.98
2019-02-23T00:46:12.156Z,24.70
2019-02-23T00:47:15.796Z,37.17
2019-02-23T00:48:19.392Z,25.35
2019-02-23T00:49:23.043Z,28.65
2019-02-23T00:50:26.618Z,25.72
2019-02-23T00:51:30.232Z,24.50
2019-02-23T00:52:33.856Z,29.60
2019-02-23T00:53:37.494Z,21.60
2019-02-23T00:54:41.114Z,27.07
2019-02-23T00:55:44.801Z,26.02
2019-02-23T00:56:48.417Z,23.73
2019-02-23T00:57:52.053Z,22.45
2019-02-23T00:58:55.682Z,24.65
2019-02-23T00:59:59.331Z,24.70
2019-02-23T01:01:02.935Z,25.48
2019-02-23T01:02:06.643Z,27.02
2019-02-23T01:03:10.268Z,27.10
2019-02-23T01:04:13.930Z,24.27
2019-02-23T01:05:17.523Z,24.65
2019-02-23T01:06:21.110Z,24.25
2019-02-23T01:07:24.785Z,24.90
2019-02-23T01:08:28.397Z,24.23
2019-02-23T01:09:32.055Z,21.93
2019-02-23T01:10:35.648Z,26.55
2019-02-23T01:11:39.248Z,25.15
2019-02-23T01:12:42.918Z,25.80
2019-02-23T01:13:46.517Z,23.92
2019-02-23T01:14:50.170Z,23.00
2019-02-23T01:15:53.750Z,24.50
2019-02-23T01:16:57.406Z,21.37
2019-02-23T01:18:01.055Z,21.12
2019-02-23T01:19:04.688Z,23.50
2019-02-23T01:20:09.848Z,19.52
2019-02-23T01:21:13.517Z,23.20
2019-02-23T01:22:17.291Z,25.17
2019-02-23T01:23:21.036Z,24.72
2019-02-23T01:24:24.623Z,23.75
2019-02-23T01:25:28.241Z,23.00
2019-02-23T01:26:31.909Z,22.50
2019-02-23T01:27:35.615Z,25.00
2019-02-23T01:28:39.220Z,23.15
2019-02-23T01:29:42.803Z,20.92
2019-02-23T01:30:46.464Z,21.05
2019-02-23T01:31:50.136Z,20.97
2019-02-23T01:32:53.742Z,21.00
2019-02-23T01:33:57.466Z,27.93
2019-02-23T01:35:01.119Z,23.05
2019-02-23T01:36:04.733Z,21.48
2019-02-23T01:37:08.468Z,21.87
2019-02-23T01:38:12.095Z,21.27
2019-02-23T01:39:15.692Z,21.25
2019-02-23T01:40:19.283Z,20.57
2019-02-23T01:41:23.407Z,23.52
2019-02-23T01:42:27.076Z,21.27
2019-02-23T01:43:30.760Z,24.20
2019-02-23T01:44:34.362Z,25.85
2019-02-23T01:45:42.260Z,20.02
2019-02-23T01:46:43.207Z,22.98
2019-02-23T01:47:46.936Z,27.22
2019-02-23T01:48:50.533Z,23.73
2019-02-23T01:49:59.012Z,21.50
2019-02-23T01:50:59.427Z,24.95
2019-02-23T01:52:03.111Z,31.33
2019-02-23T01:53:06.822Z,23.20
2019-02-23T01:54:10.432Z,20.05
2019-02-23T01:55:14.086Z,23.83
2019-02-23T01:56:17.691Z,20.75
2019-02-23T01:57:21.309Z,24.18
2019-02-23T01:58:25.018Z,22.67
2019-02-23T01:59:28.619Z,21.90
2019-02-23T02:00:33.052Z,21.23
2019-02-23T02:01:36.719Z,22.87
2019-02-23T02:02:40.656Z,22.65
2019-02-23T02:03:44.373Z,22.77
2019-02-23T02:04:47.983Z,20.43
2019-02-23T02:05:51.866Z,24.07
2019-02-23T02:06:55.495Z,23.75
2019-02-23T02:07:59.117Z,21.60
2019-02-23T02:09:03.038Z,23.22
2019-02-23T02:10:08.666Z,25.02
2019-02-23T02:11:12.622Z,25.43
2019-02-23T02:12:16.295Z,25.37
2019-02-23T02:13:19.902Z,26.27
2019-02-23T02:14:23.576Z,24.70
2019-02-23T02:15:27.179Z,21.70
2019-02-23T02:16:30.861Z,23.83
2019-02-23T02:17:34.451Z,24.00
2019-02-23T02:18:38.069Z,26.87
2019-02-23T02:19:41.790Z,26.25
2019-02-23T02:20:45.404Z,23.20
2019-02-23T02:21:49.793Z,21.60
2019-02-23T02:22:53.412Z,23.05
2019-02-23T02:23:57.016Z,23.45
2019-02-23T02:25:00.653Z,24.50
2019-02-23T02:26:04.322Z,20.92
2019-02-23T02:27:08.029Z,19.25
2019-02-23T02:28:11.615Z,22.67
2019-02-23T02:29:15.219Z,33.48
2019-02-23T02:30:18.830Z,23.52
2019-02-23T02:31:22.488Z,31.90
2019-02-23T02:32:26.073Z,27.80
2019-02-23T02:33:29.682Z,28.95
2019-02-23T02:34:33.280Z,21.97
2019-02-23T02:35:36.884Z,23.73
2019-02-23T02:36:40.610Z,26.70
2019-02-23T02:37:44.293Z,28.95
2019-02-23T02:38:47.907Z,25.20
2019-02-23T02:39:51.582Z,22.77
2019-02-23T02:40:55.204Z,24.98
2019-02-23T02:41:58.876Z,26.00
2019-02-23T02:43:02.544Z,25.43
2019-02-23T02:44:06.243Z,26.25
2019-02-23T02:45:11.067Z,21.82
2019-02-23T02:46:14.700Z,26.07
2019-02-23T02:47:18.345Z,22.85
2019-02-23T02:48:21.928Z,26.07
2019-02-23T02:49:25.566Z,25.52
2019-02-23T02:50:29.186Z,23.95
2019-02-23T02:51:32.874Z,26.35
2019-02-23T02:52:36.459Z,25.50
2019-02-23T02:53:40.052Z,23.67
2019-02-23T02:54:43.743Z,32.35
2019-02-23T02:55:47.339Z,27.30
2019-02-23T02:56:50.988Z,22.77
2019-02-23T02:57:54.583Z,25.20
2019-02-23T02:58:58.190Z,25.32
2019-02-23T03:00:01.782Z,25.62
2019-02-23T03:01:05.515Z,25.65
2019-02-23T03:02:09.221Z,22.82
2019-02-23T03:03:12.892Z,24.95
2019-02-23T03:04:16.491Z,24.15
2019-02-23T03:05:20.080Z,24.72
2019-02-23T03:06:23.719Z,26.95
2019-02-23T03:07:27.317Z,26.70
2019-02-23T03:08:30.912Z,22.30
2019-02-23T03:09:34.510Z,23.55
2019-02-23T03:10:38.190Z,28.83
2019-02-23T03:11:41.842Z,25.48
2019-02-23T03:12:45.577Z,26.07
2019-02-23T03:13:49.164Z,24.23
2019-02-23T03:14:52.830Z,26.10
2019-02-23T03:15:56.444Z,22.45
2019-02-23T03:17:00.064Z,23.25
2019-02-23T03:18:03.693Z,25.00
2019-02-23T03:19:07.328Z,26.30
2019-02-23T03:20:11.013Z,29.87
2019-02-23T03:21:14.634Z,26.02
2019-02-23T03:22:18.239Z,23.92
2019-02-23T03:23:21.891Z,26.30
2019-02-23T03:24:25.487Z,24.45
2019-02-23T03:25:29.162Z,23.87
2019-02-23T03:26:32.795Z,23.40
2019-02-23T03:27:36.372Z,25.95
2019-02-23T03:28:40.056Z,24.65
2019-02-23T03:29:43.668Z,23.40
2019-02-23T03:30:47.340Z,26.05
2019-02-23T03:31:50.904Z,25.92
2019-02-23T03:32:54.572Z,23.77
2019-02-23T03:33:58.236Z,29.05
2019-02-23T03:35:01.844Z,25.23
2019-02-23T03:36:05.487Z,26.02
2019-02-23T03:37:09.112Z,25.57
2019-02-23T03:38:12.745Z,24.85
2019-02-23T03:39:16.388Z,25.72
2019-02-23T03:40:19.977Z,23.00
2019-02-23T03:41:23.581Z,23.98
2019-02-23T03:42:27.175Z,23.02
2019-02-23T03:43:30.888Z,25.85
2019-02-23T03:44:34.490Z,25.52
2019-02-23T03:45:38.155Z,25.35
2019-02-23T03:46:41.813Z,24.70
2019-02-23T03:47:45.426Z,24.52
2019-02-23T03:48:49.071Z,23.80
2019-02-23T03:49:52.677Z,26.68
2019-02-23T03:50:56.298Z,21.87
2019-02-23T03:51:59.908Z,25.70
2019-02-23T03:53:03.512Z,31.12
2019-02-23T03:54:07.237Z,26.68
2019-02-23T03:55:10.836Z,27.95
2019-02-23T03:56:14.507Z,23.77
2019-02-23T03:57:18.117Z,26.40
2019-02-23T03:58:21.871Z,24.52
2019-02-23T03:59:25.508Z,29.00
2019-02-23T04:00:29.085Z,30.75
2019-02-23T04:01:32.736Z,31.23
2019-02-23T04:02:36.343Z,22.93
2019-02-23T04:03:39.963Z,25.80
2019-02-23T04:04:43.593Z,25.20
2019-02-23T04:05:47.218Z,26.62
2019-02-23T04:06:50.879Z,26.85
2019-02-23T04:07:54.462Z,22.90
2019-02-23T04:08:58.081Z,26.40
2019-02-23T04:10:01.687Z,25.70
2019-02-23T04:11:05.332Z,26.90
2019-02-23T04:12:08.914Z,28.30
2019-02-23T04:13:12.532Z,28.75
2019-02-23T04:14:16.146Z,24.87
2019-02-23T04:15:19.811Z,23.95
2019-02-23T04:16:23.541Z,27.15
2019-02-23T04:17:27.133Z,27.82
2019-02-23T04:18:30.721Z,27.58
2019-02-23T04:19:34.289Z,29.00
2019-02-23T04:20:37.891Z,27.25
2019-02-23T04:21:41.550Z,27.07
2019-02-23T04:22:45.145Z,26.10
2019-02-23T04:23:48.750Z,24.82
2019-02-23T04:24:52.373Z,26.52
2019-02-23T04:25:55.970Z,25.70
2019-02-23T04:26:59.618Z,26.65
2019-02-23T04:28:03.299Z,25.60
2019-02-23T04:29:07.007Z,26.52
2019-02-23T04:30:10.776Z,29.02
2019-02-23T04:31:14.383Z,31.30
2019-02-23T04:32:18.092Z,26.02
2019-02-23T04:33:21.746Z,27.73
2019-02-23T04:34:25.301Z,27.02
2019-02-23T04:35:28.887Z,27.22
2019-02-23T04:36:32.548Z,27.93
2019-02-23T04:37:36.134Z,27.40
2019-02-23T04:38:39.753Z,26.55
2019-02-23T04:39:43.351Z,26.20
2019-02-23T04:40:46.972Z,31.37
2019-02-23T04:41:50.648Z,26.23
2019-02-23T04:42:54.354Z,27.58
2019-02-23T04:44:00.885Z,27.22
2019-02-23T04:45:06.124Z,30.17
2019-02-23T04:46:09.724Z,26.80
2019-02-23T04:47:13.344Z,24.32
2019-02-23T04:48:16.930Z,25.48
2019-02-23T04:49:20.515Z,25.90
2019-02-23T04:50:24.144Z,26.02
2019-02-23T04:51:27.770Z,27.30
2019-02-23T04:52:31.356Z,23.50
2019-02-23T04:53:34.941Z,25.77
2019-02-23T04:54:39.424Z,25.35
2019-02-23T04:55:43.037Z,25.48
2019-02-23T04:56:46.650Z,23.98
2019-02-23T04:57:50.262Z,28.87
2019-02-23T04:58:53.859Z,27.30
2019-02-23T04:59:57.501Z,27.02
2019-02-23T05:01:01.087Z,25.48
2019-02-23T05:02:04.702Z,25.92
2019-02-23T05:03:08.318Z,25.70
2019-02-23T05:04:11.905Z,22.90
2019-02-23T05:05:15.625Z,28.05
2019-02-23T05:06:19.220Z,24.25
2019-02-23T05:07:22.850Z,27.10
2019-02-23T05:08:26.472Z,29.50
2019-02-23T05:09:30.086Z,25.35
2019-02-23T05:10:33.802Z,24.92
2019-02-23T05:11:37.416Z,26.80
2019-02-23T05:12:41.022Z,27.02
2019-02-23T05:13:44.760Z,23.75
2019-02-23T05:14:48.353Z,25.08
2019-02-23T05:15:51.998Z,28.15
2019-02-23T05:16:55.621Z,26.90
2019-02-23T05:17:59.495Z,28.00
2019-02-23T05:19:03.097Z,23.92
2019-02-23T05:20:07.243Z,24.43
2019-02-23T05:21:10.909Z,23.95
2019-02-23T05:22:14.512Z,25.25
2019-02-23T05:23:18.086Z,25.82
2019-02-23T05:24:21.667Z,31.05
2019-02-23T05:25:25.269Z,25.23
2019-02-23T05:26:29.078Z,23.60
2019-02-23T05:27:32.679Z,26.27
2019-02-23T05:28:36.277Z,26.30
2019-02-23T05:29:39.859Z,24.67
2019-02-23T05:30:43.634Z,26.20
2019-02-23T05:31:47.277Z,26.33
2019-02-23T05:32:50.891Z,27.00
2019-02-23T05:33:54.533Z,27.15
2019-02-23T05:34:58.128Z,26.25
2019-02-23T05:36:01.719Z,26.02
2019-02-23T05:37:05.327Z,21.82
2019-02-23T05:38:08.940Z,25.23
2019-02-23T05:39:12.569Z,26.07
2019-02-23T05:40:16.307Z,29.82
2019-02-23T05:41:19.922Z,28.90
2019-02-23T05:42:23.519Z,24.77
2019-02-23T05:43:27.192Z,26.30
2019-02-23T05:44:30.835Z,26.00
2019-02-23T05:45:34.431Z,28.32
2019-02-23T05:46:38.015Z,28.15
2019-02-23T05:47:41.620Z,28.75
2019-02-23T05:48:45.226Z,27.93
2019-02-23T05:49:48.871Z,28.15
2019-02-23T05:50:52.485Z,24.30
2019-02-23T05:51:56.120Z,28.20
2019-02-23T05:52:59.718Z,28.25
2019-02-23T05:54:03.327Z,28.67
2019-02-23T05:55:07.206Z,28.95
2019-02-23T05:56:15.166Z,25.55
2019-02-23T05:57:16.061Z,32.00
2019-02-23T05:58:19.663Z,28.35
2019-02-23T05:59:23.260Z,27.17
2019-02-23T06:00:26.921Z,25.32
2019-02-23T06:01:30.503Z,30.52
2019-02-23T06:02:34.121Z,27.37
2019-02-23T06:03:37.838Z,30.60
2019-02-23T06:04:41.446Z,32.45
2019-02-23T06:05:45.203Z,29.98
2019-02-23T06:06:48.835Z,28.42
2019-02-23T06:07:52.421Z,34.18
2019-02-23T06:08:56.038Z,26.80
2019-02-23T06:09:59.681Z,29.27
2019-02-23T06:11:03.331Z,27.90
2019-02-23T06:12:06.970Z,30.08
2019-02-23T06:13:10.742Z,30.20
2019-02-23T06:14:14.326Z,30.55
2019-02-23T06:15:17.977Z,27.40
2019-02-23T06:16:21.568Z,30.40
2019-02-23T06:17:25.159Z,30.12
2019-02-23T06:18:28.779Z,33.15
2019-02-23T06:19:32.404Z,29.52
2019-02-23T06:20:36.089Z,26.75
2019-02-23T06:21:52.919Z,27.95
2019-02-23T06:22:46.800Z,29.05
2019-02-23T06:23:50.293Z,28.73
2019-02-23T06:24:53.883Z,26.23
2019-02-23T06:25:57.500Z,28.40
2019-02-23T06:27:01.116Z,29.72
2019-02-23T06:28:04.722Z,28.05
2019-02-23T06:29:08.398Z,26.55
2019-02-23T06:30:13.048Z,30.60
2019-02-23T06:31:16.942Z,27.90
2019-02-23T06:32:20.576Z,25.02
2019-02-23T06:33:24.244Z,33.85
2019-02-23T06:34:27.886Z,31.27
2019-02-23T06:35:31.514Z,28.40
2019-02-23T06:36:35.130Z,31.40
2019-02-23T06:37:38.708Z,30.45
2019-02-23T06:38:42.307Z,28.30
2019-02-23T06:39:45.949Z,30.37
2019-02-23T06:40:49.530Z,29.90
2019-02-23T06:41:53.132Z,27.58
2019-02-23T06:42:57.949Z,28.10
2019-02-23T06:44:01.639Z,30.35
2019-02-23T06:45:08.814Z,30.65
2019-02-23T06:46:12.406Z,29.57
2019-02-23T06:47:15.991Z,33.23
2019-02-23T06:48:20.024Z,30.08
2019-02-23T06:49:23.765Z,30.45
2019-02-23T06:50:27.374Z,32.30
2019-02-23T06:51:30.960Z,31.10
2019-02-23T06:52:34.607Z,29.20
2019-02-23T06:53:38.295Z,29.95
2019-02-23T06:54:41.890Z,103.60
2019-02-23T06:55:45.472Z,106.37
2019-02-23T06:56:49.197Z,121.28
2019-02-23T06:57:52.825Z,124.10
2019-02-23T06:58:56.422Z,80.55
2019-02-23T07:00:00.015Z,66.20
2019-02-23T07:01:03.623Z,43.52
2019-02-23T07:02:07.251Z,37.80
2019-02-23T07:03:10.865Z,34.27
2019-02-23T07:04:14.475Z,46.55
2019-02-23T07:05:18.100Z,47.43
2019-02-23T07:06:21.721Z,39.60
2019-02-23T07:07:25.372Z,67.25
2019-02-23T07:08:28.956Z,34.05
2019-02-23T07:09:32.602Z,30.72
2019-02-23T07:10:36.212Z,33.35
2019-02-23T07:11:39.840Z,34.88
2019-02-23T07:12:43.444Z,31.55
2019-02-23T07:13:47.085Z,35.03
2019-02-23T07:14:50.765Z,61.83
2019-02-23T07:15:54.383Z,61.90
2019-02-23T07:16:57.995Z,47.55
2019-02-23T07:18:01.685Z,59.98
2019-02-23T07:19:05.286Z,52.43
2019-02-23T07:20:10.498Z,65.90
2019-02-23T07:21:14.131Z,43.92
2019-02-23T07:22:17.835Z,41.18
2019-02-23T07:23:21.466Z,37.05
2019-02-23T07:24:25.050Z,35.83
2019-02-23T07:25:28.693Z,35.73
2019-02-23T07:26:32.329Z,36.28
2019-02-23T07:27:35.954Z,35.15
2019-02-23T07:28:39.628Z,49.20
2019-02-23T07:29:43.214Z,43.65
2019-02-23T07:30:46.810Z,44.45
2019-02-23T07:31:50.436Z,115.52
2019-02-23T07:32:54.068Z,154.93
2019-02-23T07:33:57.693Z,60.33
2019-02-23T07:35:01.320Z,44.25
2019-02-23T07:36:04.955Z,42.88
2019-02-23T07:37:08.546Z,42.55
2019-02-23T07:38:12.214Z,34.20
2019-02-23T07:39:15.909Z,33.63
2019-02-23T07:40:19.608Z,31.65
2019-02-23T07:41:23.266Z,32.20
2019-02-23T07:42:26.887Z,33.83
2019-02-23T07:43:30.539Z,30.62
2019-02-23T07:44:34.161Z,32.33
2019-02-23T07:45:37.788Z,31.65
2019-02-23T07:46:41.402Z,27.75
2019-02-23T07:47:45.010Z,32.17
2019-02-23T07:48:48.642Z,30.48
2019-02-23T07:49:52.267Z,35.70
2019-02-23T07:50:55.906Z,31.35
2019-02-23T07:51:59.594Z,31.42
2019-02-23T07:53:03.191Z,28.17
2019-02-23T07:54:06.822Z,33.95
2019-02-23T07:55:10.404Z,33.02
2019-02-23T07:56:13.998Z,37.98
2019-02-23T07:57:17.651Z,33.55
2019-02-23T07:58:21.239Z,29.05
2019-02-23T07:59:24.823Z,31.52
2019-02-23T08:00:28.397Z,31.27
2019-02-23T08:01:32.077Z,34.08
2019-02-23T08:02:35.738Z,36.60
2019-02-23T08:03:39.322Z,40.80
2019-02-23T08:04:42.941Z,42.30
2019-02-23T08:05:46.642Z,41.37
2019-02-23T08:06:50.254Z,38.60
2019-02-23T08:07:53.965Z,35.58
2019-02-23T08:08:57.581Z,37.35
2019-02-23T08:10:01.164Z,35.90
2019-02-23T08:11:04.778Z,31.45
2019-02-23T08:12:08.379Z,34.63
2019-02-23T08:13:12.012Z,33.98
2019-02-23T08:14:15.613Z,36.85
2019-02-23T08:15:19.254Z,33.05
2019-02-23T08:16:23.113Z,35.68
2019-02-23T08:17:26.787Z,32.45
2019-02-23T08:18:30.477Z,34.27
2019-02-23T08:19:34.071Z,35.03
2019-02-23T08:20:37.731Z,32.93
2019-02-23T08:21:41.346Z,34.92
2019-02-23T08:22:44.950Z,35.05
2019-02-23T08:23:48.541Z,31.93
2019-02-23T08:24:52.156Z,28.57
2019-02-23T08:25:55.776Z,29.32
2019-02-23T08:26:59.394Z,30.10
2019-02-23T08:28:02.980Z,33.58
2019-02-23T08:29:06.570Z,29.98
2019-02-23T08:30:15.291Z,30.40
2019-02-23T08:31:18.919Z,34.23
2019-02-23T08:32:22.528Z,29.60
2019-02-23T08:33:26.206Z,33.70
2019-02-23T08:34:29.799Z,33.15
2019-02-23T08:35:33.378Z,32.33
2019-02-23T08:36:37.020Z,30.62
2019-02-23T08:37:40.630Z,34.18
2019-02-23T08:38:44.259Z,32.42
2019-02-23T08:39:47.850Z,35.90
2019-02-23T08:40:51.470Z,34.92
2019-02-23T08:41:55.119Z,34.58
2019-02-23T08:42:58.821Z,36.08
2019-02-23T08:44:02.435Z,33.78
2019-02-23T08:45:08.295Z,37.70
2019-02-23T08:46:11.918Z,33.92
2019-02-23T08:47:15.621Z,37.03
2019-02-23T08:48:19.210Z,36.35
2019-02-23T08:49:22.813Z,36.42
2019-02-23T08:50:26.452Z,39.88
2019-02-23T08:51:30.051Z,37.60
2019-02-23T08:52:33.671Z,35.98
2019-02-23T08:53:37.555Z,36.73
2019-02-23T08:54:41.172Z,39.88
2019-02-23T08:55:44.772Z,37.78
2019-02-23T08:56:48.410Z,38.67
2019-02-23T08:57:52.166Z,34.40
2019-02-23T08:58:55.804Z,34.48
2019-02-23T08:59:59.403Z,38.38
2019-02-23T09:01:03.304Z,35.08
2019-02-23T09:02:06.899Z,39.80
2019-02-23T09:03:10.486Z,45.30
2019-02-23T09:04:14.133Z,42.13
2019-02-23T09:05:17.792Z,42.75
2019-02-23T09:06:21.433Z,43.30
2019-02-23T09:07:25.172Z,43.50
2019-02-23T09:08:28.798Z,44.88
2019-02-23T09:09:32.512Z,66.02
2019-02-23T09:10:36.230Z,47.13
2019-02-23T09:11:39.887Z,46.23
2019-02-23T09:12:43.647Z,44.05
2019-02-23T09:13:47.255Z,46.05
2019-02-23T09:14:50.835Z,33.45
2019-02-23T09:15:54.562Z,27.00
2019-02-23T09:16:58.187Z,27.65
2019-02-23T09:18:01.769Z,30.15
2019-02-23T09:19:05.402Z,27.17
2019-02-23T09:20:10.708Z,25.82
2019-02-23T09:21:14.330Z,28.38
2019-02-23T09:22:17.981Z,28.98
2019-02-23T09:23:21.639Z,25.90
2019-02-23T09:24:25.293Z,28.67
2019-02-23T09:25:28.885Z,24.50
2019-02-23T09:26:32.526Z,25.02
2019-02-23T09:27:36.298Z,21.42
2019-02-23T09:28:39.909Z,20.80
2019-02-23T09:29:43.531Z,18.05
2019-02-23T09:30:47.190Z,20.68
2019-02-23T09:31:50.835Z,28.83
2019-02-23T09:32:54.428Z,22.77
2019-02-23T09:33:58.132Z,21.10
2019-02-23T09:35:01.774Z,22.13
2019-02-23T09:36:05.545Z,19.17
2019-02-23T09:37:09.144Z,22.07
2019-02-23T09:38:12.737Z,15.83
2019-02-23T09:39:16.357Z,19.85
2019-02-23T09:40:20.619Z,19.87
2019-02-23T09:41:24.373Z,24.90
2019-02-23T09:42:27.949Z,21.23
2019-02-23T09:43:31.555Z,24.95
2019-02-23T09:44:35.210Z,18.90
2019-02-23T09:45:38.791Z,23.95
2019-02-23T09:46:42.457Z,21.68
2019-02-23T09:47:46.075Z,19.17
2019-02-23T09:48:49.823Z,22.40
2019-02-23T09:49:53.363Z,23.65
2019-02-23T09:50:56.977Z,21.10
2019-02-23T09:52:00.621Z,19.02
2019-02-23T09:53:11.197Z,20.15
2019-02-23T09:54:09.482Z,21.02
2019-02-23T09:55:13.098Z,19.85
2019-02-23T09:56:16.659Z,21.25
2019-02-23T09:57:20.309Z,20.17
2019-02-23T09:58:23.919Z,21.23
2019-02-23T09:59:27.524Z,21.48
2019-02-23T10:00:31.150Z,20.97
2019-02-23T10:01:34.740Z,22.55
2019-02-23T10:02:38.387Z,22.07
2019-02-23T10:03:42.015Z,19.60
2019-02-23T10:04:45.607Z,19.75
2019-02-23T10:05:49.297Z,19.62
2019-02-23T10:06:52.909Z,22.73
2019-02-23T10:07:56.562Z,23.45
2019-02-23T10:09:00.176Z,21.52
2019-02-23T10:10:04.032Z,21.55
2019-02-23T10:11:07.702Z,20.35
2019-02-23T10:12:11.337Z,21.17
2019-02-23T10:13:14.965Z,21.15
2019-02-23T10:14:18.588Z,20.85
2019-02-23T10:15:22.170Z,21.42
2019-02-23T10:16:25.794Z,22.67
2019-02-23T10:17:29.386Z,23.30
2019-02-23T10:18:33.143Z,34.40
2019-02-23T10:19:36.767Z,34.53
2019-02-23T10:20:40.418Z,27.20
2019-02-23T10:21:44.016Z,32.50
2019-02-23T10:22:47.632Z,27.22
2019-02-23T10:23:51.226Z,24.90
2019-02-23T10:24:54.828Z,26.20
2019-02-23T10:25:58.499Z,25.17
2019-02-23T10:27:02.096Z,25.30
2019-02-23T10:28:05.683Z,28.87
2019-02-23T10:29:09.299Z,22.62
2019-02-23T10:30:14.149Z,24.40
2019-02-23T10:31:17.780Z,23.55
2019-02-23T10:32:21.536Z,28.42
2019-02-23T10:33:25.121Z,30.15
2019-02-23T10:34:28.733Z,27.40
2019-02-23T10:35:32.337Z,23.95
2019-02-23T10:36:35.976Z,24.52
2019-02-23T10:37:39.646Z,23.52
2019-02-23T10:38:43.254Z,25.92
2019-02-23T10:39:46.903Z,23.83
2019-02-23T10:40:50.562Z,22.20
2019-02-23T10:41:54.179Z,23.20
2019-02-23T10:42:57.779Z,21.07
2019-02-23T10:44:01.427Z,27.48
2019-02-23T10:45:10.279Z,23.05
2019-02-23T10:46:13.886Z,21.80
2019-02-23T10:47:17.489Z,27.27
2019-02-23T10:48:21.094Z,34.65
2019-02-23T10:49:24.723Z,22.17
2019-02-23T10:50:28.596Z,21.73
2019-02-23T10:51:32.237Z,25.52
2019-02-23T10:52:35.915Z,20.05
2019-02-23T10:53:39.503Z,22.10
2019-02-23T10:54:43.122Z,21.27
2019-02-23T10:55:46.739Z,18.27
2019-02-23T10:56:50.335Z,21.10
2019-02-23T10:57:53.943Z,19.57
2019-02-23T10:58:57.595Z,21.25
2019-02-23T11:00:01.195Z,22.87
2019-02-23T11:01:06.921Z,19.90
2019-02-23T11:02:10.298Z,21.77
2019-02-23T11:03:13.909Z,22.50
2019-02-23T11:04:17.583Z,23.65
2019-02-23T11:05:21.380Z,26.05
2019-02-23T11:06:25.011Z,23.47
2019-02-23T11:07:28.616Z,20.85
2019-02-23T11:08:32.239Z,23.40
2019-02-23T11:09:37.016Z,21.62
2019-02-23T11:10:40.697Z,26.20
2019-02-23T11:11:44.487Z,20.17
2019-02-23T11:12:48.117Z,19.05
2019-02-23T11:13:51.707Z,22.25
2019-02-23T11:14:55.303Z,21.97
2019-02-23T11:15:59.018Z,20.32
2019-02-23T11:17:02.646Z,19.65
2019-02-23T11:18:06.307Z,20.48
2019-02-23T11:19:09.975Z,18.52
2019-02-23T11:20:14.401Z,19.85
2019-02-23T11:21:18.050Z,22.17
2019-02-23T11:22:21.639Z,22.55
2019-02-23T11:23:25.395Z,21.50
2019-02-23T11:24:29.037Z,22.00
2019-02-23T11:25:33.850Z,23.57
2019-02-23T11:26:37.505Z,23.90
2019-02-23T11:27:41.252Z,20.02
2019-02-23T11:28:44.837Z,22.60
2019-02-23T11:29:48.493Z,21.42
2019-02-23T11:30:52.176Z,22.80
2019-02-23T11:31:55.820Z,19.05
2019-02-23T11:32:59.443Z,26.42
2019-02-23T11:34:03.026Z,21.25
2019-02-23T11:35:08.568Z,22.67
2019-02-23T11:36:12.168Z,24.63
2019-02-23T11:37:15.839Z,27.50
2019-02-23T11:38:19.440Z,21.20
2019-02-23T11:39:23.083Z,21.85
2019-02-23T11:40:26.703Z,23.77
2019-02-23T11:41:30.312Z,24.90
2019-02-23T11:42:33.918Z,24.15
2019-02-23T11:43:37.562Z,21.75
2019-02-23T11:44:41.213Z,23.77
2019-02-23T11:45:44.828Z,22.75
2019-02-23T11:47:00.032Z,27.20
2019-02-23T11:47:53.663Z,23.27
2019-02-23T11:48:57.276Z,24.07
2019-02-23T11:50:00.937Z,21.23
2019-02-23T11:51:04.598Z,22.70
2019-02-23T11:52:08.217Z,21.97
2019-02-23T11:53:11.821Z,24.87
2019-02-23T11:54:15.413Z,22.82
2019-02-23T11:55:19.089Z,22.42
2019-02-23T11:56:22.693Z,23.22
2019-02-23T11:57:26.407Z,19.90
2019-02-23T11:58:30.014Z,20.08
2019-02-23T11:59:33.629Z,19.12
2019-02-23T12:00:37.323Z,19.52
2019-02-23T12:01:40.939Z,19.20
2019-02-23T12:02:52.071Z,16.82
2019-02-23T12:03:49.889Z,20.08
2019-02-23T12:04:53.717Z,21.00
2019-02-23T12:05:57.304Z,18.27
2019-02-23T12:07:00.919Z,18.75
2019-02-23T12:08:04.534Z,21.05
2019-02-23T12:09:08.495Z,22.15
2019-02-23T12:10:18.239Z,19.45
2019-02-23T12:11:21.851Z,22.55
2019-02-23T12:12:25.483Z,21.93
2019-02-23T12:13:29.104Z,24.85
2019-02-23T12:14:32.745Z,18.98
2019-02-23T12:15:36.343Z,21.10
2019-02-23T12:16:39.949Z,22.13
2019-02-23T12:17:43.675Z,22.95
2019-02-23T12:18:47.280Z,20.52
2019-02-23T12:19:50.899Z,20.80
2019-02-23T12:20:54.498Z,20.55
2019-02-23T12:21:58.094Z,20.25
2019-02-23T12:23:01.767Z,18.87
2019-02-23T12:24:06.301Z,21.37
2019-02-23T12:25:13.037Z,22.93
2019-02-23T12:26:15.567Z,20.75
2019-02-23T12:27:19.196Z,18.32
2019-02-23T12:28:22.910Z,22.87
2019-02-23T12:29:26.573Z,24.52
2019-02-23T12:30:32.656Z,18.90
2019-02-23T12:31:35.487Z,16.87
2019-02-23T12:32:39.085Z,18.17
2019-02-23T12:33:42.696Z,22.30
2019-02-23T12:34:46.327Z,20.48
2019-02-23T12:35:49.953Z,19.10
2019-02-23T12:36:53.577Z,17.57
2019-02-23T12:37:57.187Z,17.52
2019-02-23T12:39:00.783Z,20.48
2019-02-23T12:40:05.247Z,20.05
2019-02-23T12:41:08.850Z,19.10
2019-02-23T12:42:12.458Z,19.40
2019-02-23T12:43:16.069Z,17.30
2019-02-23T12:44:19.680Z,19.32
2019-02-23T12:45:23.407Z,21.17
2019-02-23T12:46:27.108Z,19.15
2019-02-23T12:47:30.696Z,17.35
2019-02-23T12:48:34.284Z,17.00
2019-02-23T12:49:37.891Z,17.42
2019-02-23T12:50:41.524Z,17.40
2019-02-23T12:51:45.107Z,17.23
2019-02-23T12:52:48.739Z,18.32
2019-02-23T12:53:52.325Z,15.65
2019-02-23T12:54:56.034Z,17.80
2019-02-23T12:55:59.698Z,18.52
2019-02-23T12:57:03.315Z,20.90
2019-02-23T12:58:06.921Z,16.77
2019-02-23T12:59:10.606Z,17.32
2019-02-23T13:00:15.942Z,21.73
2019-02-23T13:01:19.646Z,18.00
2019-02-23T13:02:23.323Z,17.70
2019-02-23T13:03:26.998Z,18.10
2019-02-23T13:04:30.666Z,18.77
2019-02-23T13:05:34.280Z,17.40
2019-02-23T13:06:37.907Z,18.83
2019-02-23T13:07:41.522Z,17.33
2019-02-23T13:09:14.166Z,18.10
2019-02-23T13:10:17.780Z,17.52
2019-02-23T13:11:21.420Z,19.50
2019-02-23T13:12:36.952Z,19.90
2019-02-23T13:13:43.642Z,14.58
2019-02-23T13:15:14.006Z,15.65
2019-02-23T13:16:20.696Z,19.90
2019-02-23T13:17:33.329Z,17.62
2019-02-23T13:18:51.882Z,16.17
2019-02-23T13:20:21.986Z,14.20
2019-02-23T13:21:28.779Z,27.40
2019-02-23T13:22:38.062Z,18.30
2019-02-23T13:23:56.868Z,16.50
2019-02-23T13:25:18.048Z,16.52
2019-02-23T13:26:50.254Z,17.25
2019-02-23T13:28:19.711Z,14.47
2019-02-23T13:29:35.177Z,14.90
2019-02-23T13:30:44.716Z,15.80
2019-02-23T13:32:03.376Z,16.87
2019-02-23T13:33:18.723Z,17.23
2019-02-23T13:34:54.227Z,16.23
2019-02-23T13:36:26.437Z,16.93
2019-02-23T13:37:38.341Z,17.47
2019-02-23T13:39:00.031Z,17.93
2019-02-23T13:40:06.730Z,15.87
2019-02-23T13:41:16.181Z,14.77
2019-02-23T13:42:34.942Z,16.63
2019-02-23T13:43:58.154Z,17.03
2019-02-23T13:45:16.894Z,20.20
2019-02-23T13:46:32.408Z,19.10
2019-02-23T13:47:48.115Z,17.80